sensor_id;sensor_type;location;lat;lon;timestamp;P1;durP1;ratioP1;P2;durP2;ratioP2
55603;SDS011;41468;48.838;9.330;2022-09-30T00:01:32;5.03;;;3.40;;
55603;SDS011;41468;48.838;9.330;2022-09-30T00:04:03;4.03;;;3.63;;
55603;SDS011;41468;48.838;9.330;2022-09-30T00:06:32;4.03;;;3.30;;
55603;SDS011;41468;48.838;9.330;2022-09-30T00:09:03;4.30;;;3.50;;
55603;SDS011;41468;48.838;9.330;2022-09-30T00:11:34;6.90;;;4.03;;
55603;SDS011;41468;48.838;9.330;2022-09-30T00:14:05;4.10;;;3.70;;
55603;SDS011;41468;48.838;9.330;2022-09-30T00:16:38;4.73;;;3.80;;
55603;SDS011;41468;48.838;9.330;2022-09-30T00:19:09;6.83;;;3.47;;
55603;SDS011;41468;48.838;9.330;2022-09-30T00:21:40;4.07;;;3.43;;
55603;SDS011;41468;48.838;9.330;2022-09-30T00:24:10;3.97;;;3.53;;
55603;SDS011;41468;48.838;9.330;2022-09-30T00:26:40;6.00;;;3.60;;
55603;SDS011;41468;48.838;9.330;2022-09-30T00:29:09;6.47;;;3.77;;
55603;SDS011;41468;48.838;9.330;2022-09-30T00:31:42;4.23;;;3.60;;
55603;SDS011;41468;48.838;9.330;2022-09-30T00:34:12;4.60;;;3.87;;
55603;SDS011;41468;48.838;9.330;2022-09-30T00:36:44;4.37;;;3.27;;
55603;SDS011;41468;48.838;9.330;2022-09-30T00:39:16;5.17;;;3.83;;
55603;SDS011;41468;48.838;9.330;2022-09-30T00:41:49;5.77;;;3.53;;
55603;SDS011;41468;48.838;9.330;2022-09-30T00:50:15;3.83;;;3.30;;
55603;SDS011;41468;48.838;9.330;2022-09-30T00:52:58;4.07;;;3.70;;
55603;SDS011;41468;48.838;9.330;2022-09-30T00:55:34;5.00;;;3.60;;
55603;SDS011;41468;48.838;9.330;2022-09-30T00:58:15;4.07;;;3.67;;
55603;SDS011;41468;48.838;9.330;2022-09-30T01:00:49;7.30;;;4.23;;
55603;SDS011;41468;48.838;9.330;2022-09-30T01:03:23;5.13;;;3.33;;
55603;SDS011;41468;48.838;9.330;2022-09-30T01:05:52;3.73;;;3.27;;
55603;SDS011;41468;48.838;9.330;2022-09-30T01:08:22;4.77;;;3.50;;
55603;SDS011;41468;48.838;9.330;2022-09-30T01:10:54;5.13;;;4.00;;
55603;SDS011;41468;48.838;9.330;2022-09-30T01:13:26;3.87;;;3.47;;
55603;SDS011;41468;48.838;9.330;2022-09-30T01:16:10;3.97;;;3.57;;
55603;SDS011;41468;48.838;9.330;2022-09-30T01:19:03;6.17;;;3.43;;
55603;SDS011;41468;48.838;9.330;2022-09-30T01:21:56;4.17;;;3.73;;
55603;SDS011;41468;48.838;9.330;2022-09-30T01:24:43;4.40;;;3.57;;
55603;SDS011;41468;48.838;9.330;2022-09-30T01:27:33;5.43;;;3.60;;
55603;SDS011;41468;48.838;9.330;2022-09-30T01:30:18;5.93;;;3.67;;
55603;SDS011;41468;48.838;9.330;2022-09-30T01:35:50;4.10;;;3.10;;
55603;SDS011;41468;48.838;9.330;2022-09-30T01:38:29;6.93;;;3.50;;
55603;SDS011;41468;48.838;9.330;2022-09-30T01:41:14;3.70;;;3.40;;
55603;SDS011;41468;48.838;9.330;2022-09-30T01:43:52;4.73;;;3.57;;
55603;SDS011;41468;48.838;9.330;2022-09-30T01:46:29;3.67;;;3.37;;
55603;SDS011;41468;48.838;9.330;2022-09-30T01:49:15;3.93;;;3.47;;
55603;SDS011;41468;48.838;9.330;2022-09-30T01:51:52;4.13;;;3.23;;
55603;SDS011;41468;48.838;9.330;2022-09-30T01:54:29;3.90;;;3.60;;
55603;SDS011;41468;48.838;9.330;2022-09-30T01:57:06;4.83;;;3.60;;
55603;SDS011;41468;48.838;9.330;2022-09-30T01:59:43;4.07;;;3.40;;
55603;SDS011;41468;48.838;9.330;2022-09-30T02:02:16;3.60;;;3.30;;
55603;SDS011;41468;48.838;9.330;2022-09-30T02:04:54;4.03;;;3.63;;
55603;SDS011;41468;48.838;9.330;2022-09-30T02:07:30;5.40;;;3.60;;
55603;SDS011;41468;48.838;9.330;2022-09-30T02:10:03;3.47;;;3.17;;
55603;SDS011;41468;48.838;9.330;2022-09-30T02:12:40;3.90;;;3.50;;
55603;SDS011;41468;48.838;9.330;2022-09-30T02:15:15;5.67;;;3.40;;
55603;SDS011;41468;48.838;9.330;2022-09-30T02:17:49;3.50;;;3.20;;
55603;SDS011;41468;48.838;9.330;2022-09-30T02:20:27;5.37;;;3.10;;
55603;SDS011;41468;48.838;9.330;2022-09-30T02:23:02;3.67;;;3.37;;
55603;SDS011;41468;48.838;9.330;2022-09-30T02:25:35;3.50;;;3.20;;
55603;SDS011;41468;48.838;9.330;2022-09-30T02:28:10;5.97;;;3.47;;
55603;SDS011;41468;48.838;9.330;2022-09-30T02:30:46;4.07;;;3.67;;
55603;SDS011;41468;48.838;9.330;2022-09-30T02:33:19;5.00;;;3.50;;
55603;SDS011;41468;48.838;9.330;2022-09-30T02:35:57;3.60;;;3.40;;
55603;SDS011;41468;48.838;9.330;2022-09-30T02:38:34;3.83;;;3.53;;
55603;SDS011;41468;48.838;9.330;2022-09-30T02:41:08;3.67;;;3.40;;
55603;SDS011;41468;48.838;9.330;2022-09-30T02:43:42;3.90;;;3.47;;
55603;SDS011;41468;48.838;9.330;2022-09-30T02:46:14;3.80;;;3.30;;
55603;SDS011;41468;48.838;9.330;2022-09-30T02:48:53;4.10;;;3.70;;
55603;SDS011;41468;48.838;9.330;2022-09-30T02:51:34;3.50;;;3.30;;
55603;SDS011;41468;48.838;9.330;2022-09-30T02:54:11;5.50;;;3.50;;
55603;SDS011;41468;48.838;9.330;2022-09-30T02:56:48;6.57;;;4.17;;
55603;SDS011;41468;48.838;9.330;2022-09-30T02:59:23;10.80;;;3.60;;
55603;SDS011;41468;48.838;9.330;2022-09-30T03:01:54;3.67;;;3.37;;
55603;SDS011;41468;48.838;9.330;2022-09-30T03:04:25;5.07;;;3.30;;
55603;SDS011;41468;48.838;9.330;2022-09-30T03:07:01;4.27;;;3.57;;
55603;SDS011;41468;48.838;9.330;2022-09-30T03:09:33;3.63;;;3.33;;
55603;SDS011;41468;48.838;9.330;2022-09-30T03:12:07;4.23;;;3.77;;
55603;SDS011;41468;48.838;9.330;2022-09-30T03:17:55;3.63;;;3.00;;
55603;SDS011;41468;48.838;9.330;2022-09-30T03:20:36;6.83;;;3.27;;
55603;SDS011;41468;48.838;9.330;2022-09-30T03:23:21;3.13;;;2.93;;
55603;SDS011;41468;48.838;9.330;2022-09-30T03:26:13;3.67;;;3.37;;
55603;SDS011;41468;48.838;9.330;2022-09-30T03:28:51;3.60;;;3.30;;
55603;SDS011;41468;48.838;9.330;2022-09-30T03:31:35;4.80;;;3.97;;
55603;SDS011;41468;48.838;9.330;2022-09-30T03:34:12;4.53;;;4.10;;
55603;SDS011;41468;48.838;9.330;2022-09-30T03:36:50;4.07;;;3.67;;
55603;SDS011;41468;48.838;9.330;2022-09-30T03:39:38;4.37;;;3.80;;
55603;SDS011;41468;48.838;9.330;2022-09-30T03:42:23;4.13;;;3.80;;
55603;SDS011;41468;48.838;9.330;2022-09-30T03:44:59;4.43;;;3.80;;
55603;SDS011;41468;48.838;9.330;2022-09-30T03:47:36;3.77;;;3.40;;
55603;SDS011;41468;48.838;9.330;2022-09-30T03:50:11;4.20;;;3.80;;
55603;SDS011;41468;48.838;9.330;2022-09-30T03:52:44;3.83;;;3.53;;
55603;SDS011;41468;48.838;9.330;2022-09-30T03:55:17;5.10;;;3.47;;
55603;SDS011;41468;48.838;9.330;2022-09-30T03:57:48;6.07;;;4.27;;
55603;SDS011;41468;48.838;9.330;2022-09-30T04:00:20;6.57;;;3.60;;
55603;SDS011;41468;48.838;9.330;2022-09-30T04:02:49;4.33;;;3.93;;
55603;SDS011;41468;48.838;9.330;2022-09-30T04:05:23;4.80;;;4.40;;
55603;SDS011;41468;48.838;9.330;2022-09-30T04:07:53;4.73;;;4.33;;
55603;SDS011;41468;48.838;9.330;2022-09-30T04:10:25;5.70;;;4.77;;
55603;SDS011;41468;48.838;9.330;2022-09-30T04:12:55;5.20;;;4.70;;
55603;SDS011;41468;48.838;9.330;2022-09-30T04:15:25;6.93;;;4.80;;
55603;SDS011;41468;48.838;9.330;2022-09-30T04:17:55;4.70;;;4.30;;
55603;SDS011;41468;48.838;9.330;2022-09-30T04:20:25;4.63;;;4.23;;
55603;SDS011;41468;48.838;9.330;2022-09-30T04:22:55;4.73;;;4.30;;
55603;SDS011;41468;48.838;9.330;2022-09-30T04:25:28;3.93;;;3.63;;
55603;SDS011;41468;48.838;9.330;2022-09-30T04:27:58;4.37;;;3.97;;
55603;SDS011;41468;48.838;9.330;2022-09-30T04:30:28;4.07;;;3.27;;
55603;SDS011;41468;48.838;9.330;2022-09-30T04:32:59;4.03;;;3.70;;
55603;SDS011;41468;48.838;9.330;2022-09-30T04:35:29;3.97;;;3.73;;
55603;SDS011;41468;48.838;9.330;2022-09-30T04:37:58;4.80;;;4.30;;
55603;SDS011;41468;48.838;9.330;2022-09-30T04:40:37;4.57;;;4.27;;
55603;SDS011;41468;48.838;9.330;2022-09-30T04:43:07;4.50;;;4.00;;
55603;SDS011;41468;48.838;9.330;2022-09-30T04:45:36;4.10;;;3.80;;
55603;SDS011;41468;48.838;9.330;2022-09-30T04:48:11;4.30;;;3.90;;
55603;SDS011;41468;48.838;9.330;2022-09-30T04:50:41;8.70;;;4.27;;
55603;SDS011;41468;48.838;9.330;2022-09-30T04:53:12;4.50;;;4.10;;
55603;SDS011;41468;48.838;9.330;2022-09-30T04:55:45;4.33;;;4.03;;
55603;SDS011;41468;48.838;9.330;2022-09-30T04:58:15;4.47;;;4.17;;
55603;SDS011;41468;48.838;9.330;2022-09-30T05:00:45;4.40;;;4.00;;
55603;SDS011;41468;48.838;9.330;2022-09-30T05:03:15;7.43;;;4.07;;
55603;SDS011;41468;48.838;9.330;2022-09-30T05:05:45;4.40;;;4.00;;
55603;SDS011;41468;48.838;9.330;2022-09-30T05:08:15;4.47;;;3.87;;
55603;SDS011;41468;48.838;9.330;2022-09-30T05:10:54;4.67;;;3.80;;
55603;SDS011;41468;48.838;9.330;2022-09-30T05:13:25;4.10;;;3.80;;
55603;SDS011;41468;48.838;9.330;2022-09-30T05:15:58;4.30;;;3.90;;
55603;SDS011;41468;48.838;9.330;2022-09-30T05:18:29;4.10;;;3.80;;
55603;SDS011;41468;48.838;9.330;2022-09-30T05:20:59;4.07;;;3.77;;
55603;SDS011;41468;48.838;9.330;2022-09-30T05:23:30;3.90;;;3.60;;
55603;SDS011;41468;48.838;9.330;2022-09-30T05:26:03;3.80;;;3.57;;
55603;SDS011;41468;48.838;9.330;2022-09-30T05:28:37;3.80;;;3.50;;
55603;SDS011;41468;48.838;9.330;2022-09-30T05:31:07;3.63;;;3.33;;
55603;SDS011;41468;48.838;9.330;2022-09-30T05:33:39;6.23;;;3.90;;
55603;SDS011;41468;48.838;9.330;2022-09-30T05:36:11;6.17;;;4.17;;
55603;SDS011;41468;48.838;9.330;2022-09-30T05:38:42;6.20;;;3.60;;
55603;SDS011;41468;48.838;9.330;2022-09-30T05:41:15;5.00;;;3.90;;
55603;SDS011;41468;48.838;9.330;2022-09-30T05:43:46;8.53;;;3.60;;
55603;SDS011;41468;48.838;9.330;2022-09-30T05:46:16;24.23;;;4.00;;
55603;SDS011;41468;48.838;9.330;2022-09-30T05:48:48;26.40;;;4.47;;
55603;SDS011;41468;48.838;9.330;2022-09-30T05:51:21;18.50;;;4.20;;
55603;SDS011;41468;48.838;9.330;2022-09-30T05:53:51;23.23;;;4.63;;
55603;SDS011;41468;48.838;9.330;2022-09-30T05:56:24;38.70;;;5.40;;
55603;SDS011;41468;48.838;9.330;2022-09-30T05:58:57;8.27;;;4.30;;
55603;SDS011;41468;48.838;9.330;2022-09-30T06:01:26;4.97;;;4.57;;
55603;SDS011;41468;48.838;9.330;2022-09-30T06:03:56;12.57;;;4.30;;
55603;SDS011;41468;48.838;9.330;2022-09-30T06:06:26;4.80;;;3.67;;
55603;SDS011;41468;48.838;9.330;2022-09-30T06:08:56;7.47;;;4.20;;
55603;SDS011;41468;48.838;9.330;2022-09-30T06:11:29;19.43;;;4.30;;
55603;SDS011;41468;48.838;9.330;2022-09-30T06:14:00;11.63;;;4.77;;
55603;SDS011;41468;48.838;9.330;2022-09-30T06:16:30;5.97;;;4.13;;
55603;SDS011;41468;48.838;9.330;2022-09-30T06:19:00;4.40;;;4.10;;
55603;SDS011;41468;48.838;9.330;2022-09-30T06:21:31;4.27;;;3.97;;
55603;SDS011;41468;48.838;9.330;2022-09-30T06:24:01;4.70;;;3.60;;
55603;SDS011;41468;48.838;9.330;2022-09-30T06:26:34;4.90;;;4.40;;
55603;SDS011;41468;48.838;9.330;2022-09-30T06:29:04;4.40;;;4.10;;
55603;SDS011;41468;48.838;9.330;2022-09-30T06:31:34;4.60;;;4.20;;
55603;SDS011;41468;48.838;9.330;2022-09-30T06:34:04;4.87;;;4.47;;
55603;SDS011;41468;48.838;9.330;2022-09-30T06:36:33;9.03;;;4.97;;
55603;SDS011;41468;48.838;9.330;2022-09-30T06:39:03;7.57;;;5.40;;
55603;SDS011;41468;48.838;9.330;2022-09-30T06:41:41;8.77;;;5.47;;
55603;SDS011;41468;48.838;9.330;2022-09-30T06:44:11;16.97;;;5.97;;
55603;SDS011;41468;48.838;9.330;2022-09-30T06:46:41;7.33;;;5.57;;
55603;SDS011;41468;48.838;9.330;2022-09-30T06:49:19;20.83;;;5.97;;
55603;SDS011;41468;48.838;9.330;2022-09-30T06:51:50;16.70;;;6.03;;
55603;SDS011;41468;48.838;9.330;2022-09-30T06:54:19;9.63;;;6.47;;
55603;SDS011;41468;48.838;9.330;2022-09-30T06:56:52;19.07;;;6.07;;
55603;SDS011;41468;48.838;9.330;2022-09-30T06:59:23;7.77;;;5.30;;
55603;SDS011;41468;48.838;9.330;2022-09-30T07:01:53;6.80;;;6.20;;
55603;SDS011;41468;48.838;9.330;2022-09-30T07:04:23;23.93;;;6.57;;
55603;SDS011;41468;48.838;9.330;2022-09-30T07:06:53;5.97;;;5.47;;
55603;SDS011;41468;48.838;9.330;2022-09-30T07:09:23;59.50;;;6.53;;
55603;SDS011;41468;48.838;9.330;2022-09-30T07:11:55;9.40;;;5.37;;
55603;SDS011;41468;48.838;9.330;2022-09-30T07:14:25;12.87;;;6.10;;
55603;SDS011;41468;48.838;9.330;2022-09-30T07:16:56;7.87;;;6.50;;
55603;SDS011;41468;48.838;9.330;2022-09-30T07:19:29;6.80;;;5.97;;
55603;SDS011;41468;48.838;9.330;2022-09-30T07:22:00;13.60;;;6.83;;
55603;SDS011;41468;48.838;9.330;2022-09-30T07:24:43;6.93;;;6.23;;
55603;SDS011;41468;48.838;9.330;2022-09-30T07:27:15;11.00;;;6.00;;
55603;SDS011;41468;48.838;9.330;2022-09-30T07:29:46;10.80;;;6.27;;
55603;SDS011;41468;48.838;9.330;2022-09-30T07:32:35;9.17;;;6.20;;
55603;SDS011;41468;48.838;9.330;2022-09-30T07:35:06;6.30;;;5.63;;
55603;SDS011;41468;48.838;9.330;2022-09-30T07:37:36;8.73;;;5.30;;
55603;SDS011;41468;48.838;9.330;2022-09-30T07:40:07;6.50;;;6.00;;
55603;SDS011;41468;48.838;9.330;2022-09-30T07:42:40;5.60;;;5.17;;
55603;SDS011;41468;48.838;9.330;2022-09-30T07:45:11;6.33;;;5.57;;
55603;SDS011;41468;48.838;9.330;2022-09-30T07:47:44;6.00;;;5.50;;
55603;SDS011;41468;48.838;9.330;2022-09-30T07:50:19;6.57;;;5.40;;
55603;SDS011;41468;48.838;9.330;2022-09-30T07:52:49;6.03;;;5.43;;
55603;SDS011;41468;48.838;9.330;2022-09-30T07:55:21;5.57;;;5.13;;
55603;SDS011;41468;48.838;9.330;2022-09-30T07:57:54;6.67;;;6.03;;
55603;SDS011;41468;48.838;9.330;2022-09-30T08:00:24;5.90;;;5.40;;
55603;SDS011;41468;48.838;9.330;2022-09-30T08:03:07;6.50;;;5.90;;
55603;SDS011;41468;48.838;9.330;2022-09-30T08:05:38;6.37;;;5.77;;
55603;SDS011;41468;48.838;9.330;2022-09-30T08:08:10;6.57;;;6.07;;
55603;SDS011;41468;48.838;9.330;2022-09-30T08:10:40;7.20;;;6.60;;
55603;SDS011;41468;48.838;9.330;2022-09-30T08:13:13;6.70;;;5.90;;
55603;SDS011;41468;48.838;9.330;2022-09-30T08:15:42;8.90;;;6.73;;
55603;SDS011;41468;48.838;9.330;2022-09-30T08:18:12;7.13;;;6.13;;
55603;SDS011;41468;48.838;9.330;2022-09-30T08:20:42;7.73;;;6.60;;
55603;SDS011;41468;48.838;9.330;2022-09-30T08:23:12;6.33;;;5.77;;
55603;SDS011;41468;48.838;9.330;2022-09-30T08:25:42;7.33;;;6.63;;
55603;SDS011;41468;48.838;9.330;2022-09-30T08:28:14;6.33;;;5.83;;
55603;SDS011;41468;48.838;9.330;2022-09-30T08:30:45;6.03;;;5.53;;
55603;SDS011;41468;48.838;9.330;2022-09-30T08:33:14;7.40;;;6.80;;
55603;SDS011;41468;48.838;9.330;2022-09-30T08:35:44;6.50;;;6.00;;
55603;SDS011;41468;48.838;9.330;2022-09-30T08:38:14;7.57;;;6.17;;
55603;SDS011;41468;48.838;9.330;2022-09-30T08:40:47;6.87;;;6.27;;
55603;SDS011;41468;48.838;9.330;2022-09-30T08:43:30;6.83;;;6.23;;
55603;SDS011;41468;48.838;9.330;2022-09-30T08:46:10;7.03;;;6.43;;
55603;SDS011;41468;48.838;9.330;2022-09-30T08:48:47;7.73;;;6.93;;
55603;SDS011;41468;48.838;9.330;2022-09-30T08:51:29;6.23;;;5.70;;
55603;SDS011;41468;48.838;9.330;2022-09-30T08:54:04;7.67;;;6.37;;
55603;SDS011;41468;48.838;9.330;2022-09-30T08:56:38;7.13;;;6.43;;
55603;SDS011;41468;48.838;9.330;2022-09-30T08:59:13;8.43;;;6.43;;
55603;SDS011;41468;48.838;9.330;2022-09-30T09:01:54;8.33;;;6.47;;
55603;SDS011;41468;48.838;9.330;2022-09-30T09:04:30;7.63;;;6.30;;
55603;SDS011;41468;48.838;9.330;2022-09-30T09:07:01;6.97;;;6.40;;
55603;SDS011;41468;48.838;9.330;2022-09-30T09:09:42;7.00;;;6.40;;
55603;SDS011;41468;48.838;9.330;2022-09-30T09:12:24;9.27;;;6.30;;
55603;SDS011;41468;48.838;9.330;2022-09-30T09:15:09;6.77;;;6.17;;
55603;SDS011;41468;48.838;9.330;2022-09-30T09:17:55;8.13;;;7.33;;
55603;SDS011;41468;48.838;9.330;2022-09-30T09:20:55;8.13;;;7.33;;
55603;SDS011;41468;48.838;9.330;2022-09-30T09:23:26;10.03;;;7.23;;
55603;SDS011;41468;48.838;9.330;2022-09-30T09:26:02;8.20;;;7.40;;
55603;SDS011;41468;48.838;9.330;2022-09-30T09:28:33;10.03;;;8.47;;
55603;SDS011;41468;48.838;9.330;2022-09-30T09:31:10;10.53;;;7.07;;
55603;SDS011;41468;48.838;9.330;2022-09-30T09:33:42;7.37;;;6.67;;
55603;SDS011;41468;48.838;9.330;2022-09-30T09:36:18;7.83;;;6.73;;
55603;SDS011;41468;48.838;9.330;2022-09-30T09:39:06;8.07;;;6.87;;
55603;SDS011;41468;48.838;9.330;2022-09-30T09:41:50;7.17;;;6.47;;
55603;SDS011;41468;48.838;9.330;2022-09-30T09:44:29;6.87;;;6.27;;
55603;SDS011;41468;48.838;9.330;2022-09-30T09:47:10;6.65;;;5.97;;
55603;SDS011;41468;48.838;9.330;2022-09-30T09:49:44;7.00;;;6.37;;
55603;SDS011;41468;48.838;9.330;2022-09-30T09:55:29;7.17;;;5.57;;
55603;SDS011;41468;48.838;9.330;2022-09-30T09:58:05;6.57;;;5.97;;
55603;SDS011;41468;48.838;9.330;2022-09-30T10:00:39;5.35;;;4.95;;
55603;SDS011;41468;48.838;9.330;2022-09-30T10:03:25;6.43;;;5.83;;
55603;SDS011;41468;48.838;9.330;2022-09-30T10:05:59;6.80;;;6.00;;
55603;SDS011;41468;48.838;9.330;2022-09-30T10:08:33;6.20;;;5.60;;
55603;SDS011;41468;48.838;9.330;2022-09-30T10:11:05;6.63;;;6.07;;
55603;SDS011;41468;48.838;9.330;2022-09-30T10:13:40;5.95;;;5.45;;
55603;SDS011;41468;48.838;9.330;2022-09-30T10:19:04;6.90;;;5.30;;
55603;SDS011;41468;48.838;9.330;2022-09-30T10:21:47;5.32;;;4.82;;
55603;SDS011;41468;48.838;9.330;2022-09-30T10:24:25;5.45;;;4.95;;
55603;SDS011;41468;48.838;9.330;2022-09-30T10:26:57;4.60;;;4.20;;
55603;SDS011;41468;48.838;9.330;2022-09-30T10:29:28;4.60;;;4.20;;
55603;SDS011;41468;48.838;9.330;2022-09-30T10:32:00;4.22;;;3.90;;
55603;SDS011;41468;48.838;9.330;2022-09-30T10:34:34;3.92;;;3.63;;
55603;SDS011;41468;48.838;9.330;2022-09-30T10:37:07;3.50;;;3.17;;
55603;SDS011;41468;48.838;9.330;2022-09-30T10:39:40;3.42;;;3.13;;
55603;SDS011;41468;48.838;9.330;2022-09-30T10:42:14;3.70;;;3.10;;
55603;SDS011;41468;48.838;9.330;2022-09-30T10:44:52;4.60;;;3.15;;
55603;SDS011;41468;48.838;9.330;2022-09-30T10:47:24;3.58;;;2.50;;
55603;SDS011;41468;48.838;9.330;2022-09-30T10:50:05;2.72;;;2.53;;
55603;SDS011;41468;48.838;9.330;2022-09-30T10:52:46;2.60;;;2.40;;
55603;SDS011;41468;48.838;9.330;2022-09-30T10:55:29;2.70;;;2.50;;
55603;SDS011;41468;48.838;9.330;2022-09-30T10:58:03;2.60;;;2.40;;
55603;SDS011;41468;48.838;9.330;2022-09-30T11:00:52;2.00;;;1.90;;
55603;SDS011;41468;48.838;9.330;2022-09-30T11:03:28;3.33;;;1.80;;
55603;SDS011;41468;48.838;9.330;2022-09-30T11:06:07;1.80;;;1.70;;
55603;SDS011;41468;48.838;9.330;2022-09-30T11:08:43;2.50;;;1.80;;
55603;SDS011;41468;48.838;9.330;2022-09-30T11:11:19;1.50;;;1.40;;
55603;SDS011;41468;48.838;9.330;2022-09-30T11:13:53;2.88;;;1.52;;
55603;SDS011;41468;48.838;9.330;2022-09-30T11:16:27;1.70;;;1.60;;
55603;SDS011;41468;48.838;9.330;2022-09-30T11:19:03;2.70;;;1.50;;
55603;SDS011;41468;48.838;9.330;2022-09-30T11:21:43;3.15;;;1.80;;
55603;SDS011;41468;48.838;9.330;2022-09-30T11:24:20;1.77;;;1.35;;
55603;SDS011;41468;48.838;9.330;2022-09-30T11:26:58;1.33;;;1.17;;
55603;SDS011;41468;48.838;9.330;2022-09-30T11:29:41;1.45;;;1.35;;
55603;SDS011;41468;48.838;9.330;2022-09-30T11:32:23;2.33;;;1.50;;
55603;SDS011;41468;48.838;9.330;2022-09-30T11:35:07;1.35;;;1.20;;
55603;SDS011;41468;48.838;9.330;2022-09-30T11:38:04;2.15;;;1.70;;
55603;SDS011;41468;48.838;9.330;2022-09-30T11:40:48;1.33;;;1.23;;
55603;SDS011;41468;48.838;9.330;2022-09-30T11:43:27;2.35;;;1.50;;
55603;SDS011;41468;48.838;9.330;2022-09-30T11:46:16;1.83;;;1.20;;
55603;SDS011;41468;48.838;9.330;2022-09-30T11:48:57;2.85;;;1.45;;
55603;SDS011;41468;48.838;9.330;2022-09-30T11:51:36;1.70;;;1.45;;
55603;SDS011;41468;48.838;9.330;2022-09-30T11:54:19;2.15;;;1.15;;
55603;SDS011;41468;48.838;9.330;2022-09-30T11:57:00;1.33;;;1.10;;
55603;SDS011;41468;48.838;9.330;2022-09-30T11:59:38;1.00;;;0.93;;
55603;SDS011;41468;48.838;9.330;2022-09-30T12:02:16;1.00;;;0.80;;
55603;SDS011;41468;48.838;9.330;2022-09-30T12:04:55;1.77;;;1.30;;
55603;SDS011;41468;48.838;9.330;2022-09-30T12:07:32;2.53;;;1.10;;
55603;SDS011;41468;48.838;9.330;2022-09-30T12:10:16;1.35;;;1.20;;
55603;SDS011;41468;48.838;9.330;2022-09-30T12:12:50;1.85;;;1.00;;
55603;SDS011;41468;48.838;9.330;2022-09-30T12:15:24;1.10;;;0.90;;
55603;SDS011;41468;48.838;9.330;2022-09-30T12:17:56;1.30;;;1.00;;
55603;SDS011;41468;48.838;9.330;2022-09-30T12:20:30;4.43;;;1.30;;
55603;SDS011;41468;48.838;9.330;2022-09-30T12:23:08;3.80;;;1.40;;
55603;SDS011;41468;48.838;9.330;2022-09-30T12:25:49;1.30;;;0.93;;
55603;SDS011;41468;48.838;9.330;2022-09-30T12:28:26;0.98;;;0.90;;
55603;SDS011;41468;48.838;9.330;2022-09-30T12:31:22;5.00;;;0.90;;
55603;SDS011;41468;48.838;9.330;2022-09-30T12:34:05;1.35;;;1.08;;
55603;SDS011;41468;48.838;9.330;2022-09-30T12:36:54;2.08;;;0.80;;
55603;SDS011;41468;48.838;9.330;2022-09-30T12:42:50;1.00;;;1.00;;
55603;SDS011;41468;48.838;9.330;2022-09-30T12:48:36;1.00;;;1.00;;
55603;SDS011;41468;48.838;9.330;2022-09-30T12:51:10;1.98;;;0.90;;
55603;SDS011;41468;48.838;9.330;2022-09-30T12:53:55;1.20;;;1.08;;
55603;SDS011;41468;48.838;9.330;2022-09-30T12:56:29;0.80;;;0.80;;
55603;SDS011;41468;48.838;9.330;2022-09-30T12:59:05;1.77;;;0.93;;
55603;SDS011;41468;48.838;9.330;2022-09-30T13:01:36;1.50;;;1.40;;
55603;SDS011;41468;48.838;9.330;2022-09-30T13:04:09;2.28;;;1.50;;
55603;SDS011;41468;48.838;9.330;2022-09-30T13:09:37;1.55;;;0.95;;
55603;SDS011;41468;48.838;9.330;2022-09-30T13:12:25;1.52;;;1.30;;
55603;SDS011;41468;48.838;9.330;2022-09-30T13:18:03;1.00;;;0.90;;
55603;SDS011;41468;48.838;9.330;2022-09-30T13:21:15;1.25;;;1.15;;
55603;SDS011;41468;48.838;9.330;2022-09-30T13:23:53;2.65;;;1.48;;
55603;SDS011;41468;48.838;9.330;2022-09-30T13:26:39;0.98;;;0.98;;
55603;SDS011;41468;48.838;9.330;2022-09-30T13:32:05;1.77;;;0.90;;
55603;SDS011;41468;48.838;9.330;2022-09-30T13:34:54;1.20;;;1.20;;
55603;SDS011;41468;48.838;9.330;2022-09-30T13:37:33;1.20;;;1.10;;
55603;SDS011;41468;48.838;9.330;2022-09-30T13:40:19;1.35;;;1.25;;
55603;SDS011;41468;48.838;9.330;2022-09-30T13:43:15;1.10;;;1.00;;
55603;SDS011;41468;48.838;9.330;2022-09-30T13:45:49;1.23;;;1.23;;
55603;SDS011;41468;48.838;9.330;2022-09-30T13:48:22;1.30;;;1.20;;
55603;SDS011;41468;48.838;9.330;2022-09-30T13:51:00;2.20;;;1.02;;
55603;SDS011;41468;48.838;9.330;2022-09-30T13:53:37;1.48;;;1.10;;
55603;SDS011;41468;48.838;9.330;2022-09-30T13:56:12;1.38;;;1.27;;
55603;SDS011;41468;48.838;9.330;2022-09-30T13:58:52;1.77;;;1.00;;
55603;SDS011;41468;48.838;9.330;2022-09-30T14:01:45;1.40;;;1.30;;
55603;SDS011;41468;48.838;9.330;2022-09-30T14:07:36;1.48;;;1.38;;
55603;SDS011;41468;48.838;9.330;2022-09-30T14:10:26;1.73;;;1.05;;
55603;SDS011;41468;48.838;9.330;2022-09-30T14:13:14;1.25;;;1.25;;
55603;SDS011;41468;48.838;9.330;2022-09-30T14:16:14;1.63;;;1.27;;
55603;SDS011;41468;48.838;9.330;2022-09-30T14:19:14;1.30;;;1.30;;
55603;SDS011;41468;48.838;9.330;2022-09-30T14:21:51;3.08;;;1.20;;
55603;SDS011;41468;48.838;9.330;2022-09-30T14:24:26;1.38;;;1.27;;
55603;SDS011;41468;48.838;9.330;2022-09-30T14:27:09;1.38;;;1.27;;
55603;SDS011;41468;48.838;9.330;2022-09-30T14:29:59;1.95;;;1.20;;
55603;SDS011;41468;48.838;9.330;2022-09-30T14:32:34;2.53;;;1.20;;
55603;SDS011;41468;48.838;9.330;2022-09-30T14:35:11;1.73;;;1.63;;
55603;SDS011;41468;48.838;9.330;2022-09-30T14:37:45;1.80;;;1.38;;
55603;SDS011;41468;48.838;9.330;2022-09-30T14:40:22;1.63;;;1.52;;
55603;SDS011;41468;48.838;9.330;2022-09-30T14:42:54;1.17;;;1.13;;
55603;SDS011;41468;48.838;9.330;2022-09-30T14:45:28;1.00;;;1.00;;
55603;SDS011;41468;48.838;9.330;2022-09-30T14:48:03;2.35;;;1.25;;
55603;SDS011;41468;48.838;9.330;2022-09-30T14:50:39;1.30;;;1.20;;
55603;SDS011;41468;48.838;9.330;2022-09-30T14:53:24;1.20;;;1.20;;
55603;SDS011;41468;48.838;9.330;2022-09-30T14:55:58;1.95;;;1.60;;
55603;SDS011;41468;48.838;9.330;2022-09-30T14:58:30;1.05;;;1.05;;
55603;SDS011;41468;48.838;9.330;2022-09-30T15:01:09;2.00;;;1.40;;
55603;SDS011;41468;48.838;9.330;2022-09-30T15:03:43;2.03;;;1.23;;
55603;SDS011;41468;48.838;9.330;2022-09-30T15:06:17;1.30;;;1.30;;
55603;SDS011;41468;48.838;9.330;2022-09-30T15:08:49;4.25;;;1.30;;
55603;SDS011;41468;48.838;9.330;2022-09-30T15:11:32;1.00;;;1.00;;
55603;SDS011;41468;48.838;9.330;2022-09-30T15:14:06;2.67;;;1.50;;
55603;SDS011;41468;48.838;9.330;2022-09-30T15:16:43;1.38;;;1.20;;
55603;SDS011;41468;48.838;9.330;2022-09-30T15:19:17;1.30;;;1.20;;
55603;SDS011;41468;48.838;9.330;2022-09-30T15:21:50;1.30;;;1.20;;
55603;SDS011;41468;48.838;9.330;2022-09-30T15:24:23;1.23;;;1.23;;
55603;SDS011;41468;48.838;9.330;2022-09-30T15:26:59;1.55;;;1.38;;
55603;SDS011;41468;48.838;9.330;2022-09-30T15:29:30;1.30;;;1.15;;
55603;SDS011;41468;48.838;9.330;2022-09-30T15:32:01;1.23;;;1.15;;
55603;SDS011;41468;48.838;9.330;2022-09-30T15:34:33;1.13;;;1.10;;
55603;SDS011;41468;48.838;9.330;2022-09-30T15:37:03;1.10;;;1.10;;
55603;SDS011;41468;48.838;9.330;2022-09-30T15:39:38;1.55;;;1.05;;
55603;SDS011;41468;48.838;9.330;2022-09-30T15:42:32;1.48;;;1.20;;
55603;SDS011;41468;48.838;9.330;2022-09-30T15:45:22;1.45;;;1.35;;
55603;SDS011;41468;48.838;9.330;2022-09-30T15:48:01;1.42;;;1.33;;
55603;SDS011;41468;48.838;9.330;2022-09-30T15:50:34;1.63;;;1.35;;
55603;SDS011;41468;48.838;9.330;2022-09-30T15:53:12;6.00;;;1.83;;
55603;SDS011;41468;48.838;9.330;2022-09-30T15:55:50;1.90;;;1.67;;
55603;SDS011;41468;48.838;9.330;2022-09-30T15:58:34;1.80;;;1.35;;
55603;SDS011;41468;48.838;9.330;2022-09-30T16:01:16;1.42;;;1.33;;
55603;SDS011;41468;48.838;9.330;2022-09-30T16:03:51;2.22;;;1.60;;
55603;SDS011;41468;48.838;9.330;2022-09-30T16:06:26;2.30;;;1.50;;
55603;SDS011;41468;48.838;9.330;2022-09-30T16:09:02;1.65;;;1.55;;
55603;SDS011;41468;48.838;9.330;2022-09-30T16:11:35;1.60;;;1.50;;
55603;SDS011;41468;48.838;9.330;2022-09-30T16:14:16;1.27;;;1.20;;
55603;SDS011;41468;48.838;9.330;2022-09-30T16:16:49;1.15;;;1.00;;